Connexion S'enregistrer

Connexion à votre compte

Identifiant
Mot de passe
Maintenir la connexion active sur ce site

Créer un compte

Pour valider ce formulaire, vous devez remplir tous les champs.
Nom
Identifiant
Mot de passe
Répétez le mot de passe
Adresse e-mail
Répétez l'adresse e-mail

Veuillez saisir l'adresse e-mail associée à votre compte d'utilisateur. Votre identifiant vous sera envoyé à cette adresse.

Nous contacter

 Téléphone : +33 (0)4 79 54 41 81

Coordonnées détaillées et accès : cliquez ici

 
LFLB °C
    Ferienhaus Ostsee
[source: ADDS]
METAR
LFLB 292130Z AUTO 01012KT 9999 OVC027 05/02 Q1018 =
TAF LFLB 291100Z 2912/3012 36013KT 9999 BKN030 TEMPO 2912/2922 4000 RA OVC020 TEMPO 3007/3012 36015G25KT
TAF
TAF LFLB 291100Z 2912/3012 36013KT 9999 BKN030 TEMPO 2912/2922 4000 RA OVC020 TEMPO 3007/3012 36015G25KT =
SR / SS: 05:19 / 18:02 UTC (Lever/Coucher du soleil le 2020-03-30)
JSN Boot template designed by JoomlaShine.com